createdAt,value
2017-10-13T00:01:30.492Z,7.60
2017-10-13T00:03:58.016Z,7.10
2017-10-13T00:06:25.763Z,7.00
2017-10-13T00:08:54.483Z,7.20
2017-10-13T00:11:22.840Z,8.35
2017-10-13T00:13:50.394Z,8.02
2017-10-13T00:16:19.251Z,8.12
2017-10-13T00:18:46.784Z,7.77
2017-10-13T00:21:15.331Z,7.72
2017-10-13T00:23:43.768Z,7.40
2017-10-13T00:26:11.275Z,8.38
2017-10-13T00:28:39.583Z,7.50
2017-10-13T00:31:07.932Z,7.50
2017-10-13T00:33:35.495Z,7.13
2017-10-13T00:36:03.031Z,6.90
2017-10-13T00:38:30.540Z,7.73
2017-10-13T00:41:05.992Z,8.13
2017-10-13T00:43:33.515Z,7.77
2017-10-13T00:46:01.074Z,7.30
2017-10-13T00:48:28.585Z,7.43
2017-10-13T00:50:56.653Z,6.90
2017-10-13T00:53:24.191Z,7.25
2017-10-13T00:56:04.243Z,6.95
2017-10-13T00:58:31.771Z,7.33
2017-10-13T01:00:59.307Z,7.53
2017-10-13T01:03:26.851Z,7.73
2017-10-13T01:05:54.491Z,7.40
2017-10-13T01:08:22.004Z,7.10
2017-10-13T01:10:49.533Z,7.83
2017-10-13T01:13:17.074Z,8.75
2017-10-13T01:15:44.588Z,8.67
2017-10-13T01:18:12.398Z,9.20
2017-10-13T01:20:39.957Z,9.30
2017-10-13T01:23:07.517Z,8.40
2017-10-13T01:25:39.381Z,7.73
2017-10-13T01:28:08.396Z,8.45
2017-10-13T01:30:35.939Z,7.10
2017-10-13T01:33:04.260Z,8.90
2017-10-13T01:35:32.807Z,9.65
2017-10-13T01:38:00.910Z,7.95
2017-10-13T01:40:28.424Z,8.27
2017-10-13T01:43:01.097Z,7.43
2017-10-13T01:45:28.620Z,8.50
2017-10-13T01:47:56.307Z,8.10
2017-10-13T01:50:23.847Z,6.93
2017-10-13T01:52:52.460Z,7.25
2017-10-13T01:55:20.038Z,8.80
2017-10-13T01:57:47.534Z,9.40
2017-10-13T02:00:15.133Z,9.82
2017-10-13T02:02:42.690Z,8.52
2017-10-13T02:05:11.879Z,8.17
2017-10-13T02:07:39.408Z,8.90
2017-10-13T02:10:07.127Z,7.70
2017-10-13T02:12:38.784Z,7.17
2017-10-13T02:15:06.327Z,9.50
2017-10-13T02:17:33.843Z,8.48
2017-10-13T02:20:01.369Z,8.80
2017-10-13T02:22:28.921Z,8.40
2017-10-13T02:24:56.464Z,8.57
2017-10-13T02:27:24.883Z,8.40
2017-10-13T02:29:52.641Z,9.32
2017-10-13T02:32:20.191Z,7.50
2017-10-13T02:34:47.759Z,7.93
2017-10-13T02:37:15.275Z,8.50
2017-10-13T02:39:42.819Z,8.33
2017-10-13T02:42:11.100Z,8.48
2017-10-13T02:44:38.746Z,8.40
2017-10-13T02:47:06.603Z,8.13
2017-10-13T02:49:34.676Z,7.70
2017-10-13T02:52:02.210Z,8.38
2017-10-13T02:54:29.748Z,8.93
2017-10-13T02:56:57.927Z,9.70
2017-10-13T02:59:25.447Z,9.57
2017-10-13T03:01:53.006Z,8.75
2017-10-13T03:04:21.315Z,10.43
2017-10-13T03:06:48.807Z,8.70
2017-10-13T03:09:17.263Z,9.10
2017-10-13T03:11:44.815Z,9.25
2017-10-13T03:14:12.376Z,10.20
2017-10-13T03:16:39.935Z,10.40
2017-10-13T03:19:07.815Z,11.17
2017-10-13T03:21:36.162Z,9.65
2017-10-13T03:24:03.680Z,9.13
2017-10-13T03:26:31.199Z,9.43
2017-10-13T03:28:58.765Z,9.50
2017-10-13T03:31:26.296Z,9.20
2017-10-13T03:33:56.435Z,7.93
2017-10-13T03:36:24.023Z,9.60
2017-10-13T03:38:51.564Z,9.07
2017-10-13T03:41:19.299Z,9.70
2017-10-13T03:43:46.811Z,10.80
2017-10-13T03:46:15.464Z,10.23
2017-10-13T03:48:43.207Z,9.80
2017-10-13T03:51:10.711Z,8.90
2017-10-13T03:53:38.238Z,8.38
2017-10-13T03:56:05.823Z,10.25
2017-10-13T03:58:34.637Z,10.25
2017-10-13T04:01:02.180Z,10.07
2017-10-13T04:03:29.722Z,9.10
2017-10-13T04:05:57.231Z,10.33
2017-10-13T04:08:24.896Z,9.57
2017-10-13T04:10:53.079Z,9.65
2017-10-13T04:13:24.451Z,8.80
2017-10-13T04:15:52.022Z,9.90
2017-10-13T04:18:19.583Z,9.85
2017-10-13T04:20:48.019Z,10.55
2017-10-13T04:23:15.592Z,10.17
2017-10-13T04:25:43.127Z,7.53
2017-10-13T04:28:11.419Z,10.35
2017-10-13T04:30:38.962Z,8.80
2017-10-13T04:33:07.225Z,9.52
2017-10-13T04:35:34.738Z,10.20
2017-10-13T04:38:02.271Z,11.80
2017-10-13T04:40:29.871Z,10.68
2017-10-13T04:42:57.826Z,9.30
2017-10-13T04:45:27.335Z,9.23
2017-10-13T04:47:55.092Z,10.23
2017-10-13T04:50:22.600Z,12.65
2017-10-13T04:52:51.040Z,9.47
2017-10-13T04:55:18.766Z,10.17
2017-10-13T04:57:47.155Z,10.10
2017-10-13T05:00:17.592Z,11.30
2017-10-13T05:02:45.904Z,11.10
2017-10-13T05:05:14.223Z,12.00
2017-10-13T05:07:42.495Z,9.83
2017-10-13T05:10:10.993Z,8.68
2017-10-13T05:12:38.518Z,6.77
2017-10-13T05:15:06.029Z,7.90
2017-10-13T05:17:36.865Z,8.63
2017-10-13T05:20:04.407Z,10.07
2017-10-13T05:22:31.951Z,10.97
2017-10-13T05:25:00.361Z,12.70
2017-10-13T05:27:28.024Z,10.80
2017-10-13T05:29:55.687Z,13.80
2017-10-13T05:32:23.275Z,13.13
2017-10-13T05:34:51.135Z,10.60
2017-10-13T05:37:19.168Z,12.60
2017-10-13T05:39:47.048Z,11.77
2017-10-13T05:42:14.599Z,15.63
2017-10-13T05:44:42.111Z,12.70
2017-10-13T05:47:13.532Z,13.00
2017-10-13T05:49:41.196Z,12.73
2017-10-13T05:52:08.752Z,12.43
2017-10-13T05:54:36.291Z,11.88
2017-10-13T05:57:03.803Z,12.93
2017-10-13T05:59:31.522Z,12.97
2017-10-13T06:01:59.028Z,13.20
2017-10-13T06:04:26.534Z,11.33
2017-10-13T06:06:54.132Z,13.05
2017-10-13T06:09:23.343Z,12.10
2017-10-13T06:11:50.899Z,10.52
2017-10-13T06:14:18.488Z,10.50
2017-10-13T06:16:46.039Z,11.73
2017-10-13T06:19:14.395Z,12.00
2017-10-13T06:21:41.918Z,11.18
2017-10-13T06:24:09.571Z,13.53
2017-10-13T06:26:37.124Z,11.05
2017-10-13T06:29:04.636Z,15.23
2017-10-13T06:31:36.854Z,14.57
2017-10-13T06:34:04.420Z,11.47
2017-10-13T06:36:31.973Z,11.40
2017-10-13T06:38:59.533Z,11.73
2017-10-13T06:41:27.077Z,12.43
2017-10-13T06:43:54.663Z,11.55
2017-10-13T06:46:22.204Z,12.50
2017-10-13T06:48:50.506Z,12.48
2017-10-13T06:51:18.140Z,13.00
2017-10-13T06:53:45.959Z,13.43
2017-10-13T06:56:15.168Z,13.30
2017-10-13T06:58:43.472Z,13.67
2017-10-13T07:01:14.602Z,11.60
2017-10-13T07:03:42.399Z,12.50
2017-10-13T07:06:10.187Z,12.30
2017-10-13T07:08:37.739Z,11.83
2017-10-13T07:11:05.286Z,11.40
2017-10-13T07:13:32.819Z,11.70
2017-10-13T07:16:04.618Z,10.83
2017-10-13T07:18:32.135Z,14.90
2017-10-13T07:20:59.647Z,11.50
2017-10-13T07:23:27.228Z,13.57
2017-10-13T07:25:54.745Z,9.43
2017-10-13T07:28:22.307Z,10.00
2017-10-13T07:30:50.269Z,10.35
2017-10-13T07:33:19.254Z,9.77
2017-10-13T07:35:46.763Z,8.53
2017-10-13T07:38:14.324Z,11.73
2017-10-13T07:40:42.305Z,11.87
2017-10-13T07:43:10.587Z,9.80
2017-10-13T07:45:38.156Z,11.20
2017-10-13T07:48:09.029Z,8.80
2017-10-13T07:50:36.575Z,7.03
2017-10-13T07:53:04.190Z,8.17
2017-10-13T07:55:32.475Z,8.13
2017-10-13T07:58:00.052Z,8.47
2017-10-13T08:00:28.038Z,6.93
2017-10-13T08:02:55.627Z,7.22
2017-10-13T08:05:23.130Z,7.37
2017-10-13T08:07:51.946Z,6.53
2017-10-13T08:10:19.559Z,6.60
2017-10-13T08:12:48.095Z,6.47
2017-10-13T08:15:17.095Z,7.70
2017-10-13T08:17:44.610Z,6.10
2017-10-13T08:20:12.986Z,6.30
2017-10-13T08:22:40.623Z,8.27
2017-10-13T08:25:09.681Z,7.25
2017-10-13T08:27:37.222Z,6.25
2017-10-13T08:30:05.649Z,5.68
2017-10-13T08:32:36.360Z,5.90
2017-10-13T08:35:03.879Z,5.07
2017-10-13T08:37:32.743Z,6.73
2017-10-13T08:40:00.664Z,6.15
2017-10-13T08:42:28.251Z,5.23
2017-10-13T08:44:55.764Z,8.00
2017-10-13T08:47:23.627Z,6.13
2017-10-13T08:49:51.299Z,6.70
2017-10-13T08:52:20.263Z,7.30
2017-10-13T08:54:47.838Z,7.50
2017-10-13T08:57:15.468Z,8.82
2017-10-13T08:59:42.980Z,7.12
2017-10-13T09:02:10.539Z,6.60
2017-10-13T09:04:38.967Z,7.40
2017-10-13T09:07:06.480Z,6.60
2017-10-13T09:09:34.037Z,6.80
2017-10-13T09:12:01.556Z,7.20
2017-10-13T09:14:29.827Z,7.63
2017-10-13T09:16:57.907Z,6.28
2017-10-13T09:19:25.959Z,6.43
2017-10-13T09:21:53.460Z,6.28
2017-10-13T09:24:20.967Z,6.93
2017-10-13T09:26:48.539Z,7.17
2017-10-13T09:29:16.050Z,6.80
2017-10-13T09:31:43.592Z,7.37
2017-10-13T09:34:11.691Z,7.53
2017-10-13T09:36:39.255Z,6.10
2017-10-13T09:39:06.845Z,6.47
2017-10-13T09:41:34.399Z,6.07
2017-10-13T09:44:01.903Z,6.07
2017-10-13T09:46:29.823Z,7.00
2017-10-13T09:48:57.356Z,5.53
2017-10-13T09:51:25.871Z,6.35
2017-10-13T09:53:54.244Z,5.83
2017-10-13T09:56:21.876Z,5.12
2017-10-13T09:58:49.653Z,4.40
2017-10-13T10:01:17.207Z,6.10
2017-10-13T10:03:44.707Z,5.47
2017-10-13T10:06:12.264Z,5.22
2017-10-13T10:08:40.115Z,5.43
2017-10-13T10:11:07.615Z,5.62
2017-10-13T10:13:35.115Z,5.57
2017-10-13T10:16:03.615Z,5.34
2017-10-13T10:18:31.160Z,6.63
2017-10-13T10:20:58.674Z,5.07
2017-10-13T10:23:26.507Z,4.13
2017-10-13T10:25:54.073Z,5.87
2017-10-13T10:28:21.875Z,4.15
2017-10-13T10:30:49.464Z,4.93
2017-10-13T10:33:17.127Z,3.65
2017-10-13T10:35:44.657Z,3.80
2017-10-13T10:38:12.204Z,4.27
2017-10-13T10:40:39.743Z,3.83
2017-10-13T10:43:07.281Z,4.77
2017-10-13T10:45:34.820Z,4.87
2017-10-13T10:48:02.355Z,5.40
2017-10-13T10:50:32.989Z,4.60
2017-10-13T10:53:04.409Z,4.47
2017-10-13T10:55:32.000Z,6.33
2017-10-13T10:57:59.531Z,5.55
2017-10-13T11:00:27.085Z,4.53
2017-10-13T11:02:54.663Z,4.67
2017-10-13T11:05:26.057Z,4.33
2017-10-13T11:07:53.555Z,4.83
2017-10-13T11:10:21.115Z,5.40
2017-10-13T11:12:48.687Z,4.63
2017-10-13T11:15:16.218Z,3.90
2017-10-13T11:17:43.739Z,4.00
2017-10-13T11:20:11.463Z,4.40
2017-10-13T11:22:40.655Z,5.30
2017-10-13T11:25:08.446Z,4.23
2017-10-13T11:27:35.978Z,2.80
2017-10-13T11:30:05.267Z,3.67
2017-10-13T11:32:33.551Z,4.43
2017-10-13T11:35:01.095Z,4.97
2017-10-13T11:37:33.459Z,4.05
2017-10-13T11:40:00.954Z,4.50
2017-10-13T11:42:28.537Z,4.10
2017-10-13T11:44:56.083Z,3.70
2017-10-13T11:47:24.384Z,3.45
2017-10-13T11:49:58.702Z,4.27
2017-10-13T11:52:26.202Z,3.20
2017-10-13T11:54:55.394Z,4.20
2017-10-13T11:57:22.939Z,5.50
2017-10-13T11:59:50.464Z,8.60
2017-10-13T12:02:17.988Z,4.27
2017-10-13T12:04:45.520Z,4.33
2017-10-13T12:07:16.390Z,4.70
2017-10-13T12:09:44.834Z,5.40
2017-10-13T12:12:12.340Z,4.05
2017-10-13T12:14:39.924Z,3.80
2017-10-13T12:17:07.445Z,4.10
2017-10-13T12:19:34.961Z,4.10
2017-10-13T12:22:02.660Z,4.05
2017-10-13T12:24:30.704Z,4.63
2017-10-13T12:26:58.246Z,4.30
2017-10-13T12:29:25.776Z,3.37
2017-10-13T12:31:53.344Z,6.73
2017-10-13T12:34:20.879Z,5.27
2017-10-13T12:36:48.395Z,4.70
2017-10-13T12:39:15.992Z,4.20
2017-10-13T12:41:43.490Z,3.87
2017-10-13T12:44:12.872Z,3.04
2017-10-13T12:46:40.384Z,3.83
2017-10-13T12:49:07.878Z,2.73
2017-10-13T12:51:39.223Z,3.40
2017-10-13T12:54:07.585Z,4.22
2017-10-13T12:56:35.126Z,3.10
2017-10-13T12:59:02.663Z,3.57
2017-10-13T13:01:30.574Z,3.90
2017-10-13T13:03:58.084Z,4.70
2017-10-13T13:06:27.359Z,3.80
2017-10-13T13:08:54.994Z,3.80
2017-10-13T13:11:22.577Z,3.73
2017-10-13T13:13:51.543Z,3.92
2017-10-13T13:16:19.044Z,4.53
2017-10-13T13:18:46.620Z,4.10
2017-10-13T13:21:14.251Z,4.40
2017-10-13T13:23:44.879Z,4.23
2017-10-13T13:26:12.528Z,3.70
2017-10-13T13:28:40.248Z,4.18
2017-10-13T13:31:07.775Z,5.43
2017-10-13T13:33:36.051Z,4.00
2017-10-13T13:36:03.594Z,3.87
2017-10-13T13:38:31.106Z,3.55
2017-10-13T13:40:58.711Z,3.17
2017-10-13T13:43:26.254Z,4.47
2017-10-13T13:45:54.139Z,3.47
2017-10-13T13:48:21.643Z,4.20
2017-10-13T13:50:49.257Z,3.27
2017-10-13T13:53:25.320Z,3.30
2017-10-13T13:55:53.084Z,3.10
2017-10-13T13:58:20.636Z,3.50
2017-10-13T14:00:48.514Z,2.50
2017-10-13T14:03:16.065Z,2.60
2017-10-13T14:05:43.880Z,3.45
2017-10-13T14:08:11.380Z,2.90
2017-10-13T14:10:38.924Z,2.17
2017-10-13T14:13:06.439Z,3.85
2017-10-13T14:15:34.127Z,3.40
2017-10-13T14:18:01.632Z,2.30
2017-10-13T14:20:29.140Z,3.50
2017-10-13T14:22:57.409Z,3.45
2017-10-13T14:25:25.738Z,2.93
2017-10-13T14:27:53.508Z,2.70
2017-10-13T14:30:21.013Z,2.50
2017-10-13T14:32:48.602Z,3.92
2017-10-13T14:35:16.748Z,2.00
2017-10-13T14:37:44.375Z,2.70
2017-10-13T14:40:11.938Z,2.70
2017-10-13T14:42:39.476Z,4.43
2017-10-13T14:45:07.005Z,3.37
2017-10-13T14:47:34.547Z,3.62
2017-10-13T14:50:02.054Z,2.60
2017-10-13T14:52:30.426Z,2.50
2017-10-13T14:54:57.999Z,2.37
2017-10-13T14:57:25.538Z,3.57
2017-10-13T14:59:53.051Z,3.10
2017-10-13T15:02:20.603Z,2.37
2017-10-13T15:04:48.158Z,2.72
2017-10-13T15:07:15.712Z,2.90
2017-10-13T15:09:44.146Z,2.40
2017-10-13T15:12:11.688Z,2.53
2017-10-13T15:14:39.990Z,3.53
2017-10-13T15:17:07.499Z,3.10
2017-10-13T15:19:35.211Z,3.33
2017-10-13T15:22:03.431Z,2.80
2017-10-13T15:24:34.849Z,3.23
2017-10-13T15:30:18.267Z,2.55
2017-10-13T15:32:52.513Z,2.85
2017-10-13T15:35:25.766Z,3.23
2017-10-13T15:37:59.664Z,3.70
2017-10-13T15:40:32.956Z,2.80
2017-10-13T15:43:06.052Z,3.03
2017-10-13T15:48:18.935Z,2.75
2017-10-13T15:50:52.026Z,3.60
2017-10-13T15:53:19.582Z,3.20
2017-10-13T15:55:47.450Z,3.30
2017-10-13T15:58:14.961Z,5.23
2017-10-13T16:00:43.608Z,6.70
2017-10-13T16:03:11.163Z,3.00
2017-10-13T16:05:39.408Z,3.85
2017-10-13T16:08:07.412Z,4.57
2017-10-13T16:10:34.968Z,3.83
2017-10-13T16:13:02.472Z,4.10
2017-10-13T16:15:30.759Z,4.57
2017-10-13T16:17:58.554Z,4.87
2017-10-13T16:20:27.068Z,3.80
2017-10-13T16:22:54.605Z,4.70
2017-10-13T16:25:22.152Z,4.47
2017-10-13T16:27:54.535Z,4.87
2017-10-13T16:30:22.089Z,4.80
2017-10-13T16:32:49.626Z,6.03
2017-10-13T16:35:17.180Z,5.97
2017-10-13T16:37:45.037Z,5.00
2017-10-13T16:40:13.352Z,4.80
2017-10-13T16:42:43.896Z,5.20
2017-10-13T16:45:11.422Z,5.23
2017-10-13T16:47:38.970Z,11.27
2017-10-13T16:50:06.507Z,5.97
2017-10-13T16:52:34.015Z,3.60
2017-10-13T16:55:01.584Z,4.43
2017-10-13T16:57:30.016Z,4.18
2017-10-13T16:59:57.583Z,4.70
2017-10-13T17:02:25.393Z,4.87
2017-10-13T17:04:52.908Z,5.85
2017-10-13T17:07:21.315Z,5.30
2017-10-13T17:09:49.615Z,5.93
2017-10-13T17:12:20.727Z,6.03
2017-10-13T17:14:48.241Z,4.67
2017-10-13T17:17:15.805Z,4.95
2017-10-13T17:19:45.022Z,4.45
2017-10-13T17:22:13.322Z,4.40
2017-10-13T17:24:40.946Z,4.77
2017-10-13T17:27:12.872Z,5.22
2017-10-13T17:29:40.427Z,5.60
2017-10-13T17:32:08.174Z,4.57
2017-10-13T17:34:35.674Z,4.20
2017-10-13T17:37:04.043Z,4.62
2017-10-13T17:39:31.676Z,5.20
2017-10-13T17:42:02.816Z,4.50
2017-10-13T17:44:30.458Z,5.50
2017-10-13T17:46:58.963Z,5.67
2017-10-13T17:49:26.479Z,5.78
2017-10-13T17:51:54.807Z,5.73
2017-10-13T17:54:22.354Z,6.43
2017-10-13T17:56:49.877Z,5.23
2017-10-13T17:59:17.844Z,5.50
2017-10-13T18:01:46.195Z,5.82
2017-10-13T18:04:13.692Z,4.57
2017-10-13T18:06:42.912Z,6.03
2017-10-13T18:09:10.505Z,5.30
2017-10-13T18:11:38.822Z,5.87
2017-10-13T18:14:08.035Z,6.15
2017-10-13T18:16:35.859Z,5.87
2017-10-13T18:19:03.583Z,6.67
2017-10-13T18:21:31.653Z,4.97
2017-10-13T18:23:59.155Z,7.20
2017-10-13T18:26:27.775Z,6.06
2017-10-13T18:28:58.323Z,6.20
2017-10-13T18:31:25.884Z,7.40
2017-10-13T18:33:53.386Z,6.50
2017-10-13T18:36:21.817Z,6.80
2017-10-13T18:38:49.385Z,7.20
2017-10-13T18:41:16.943Z,6.80
2017-10-13T18:43:44.440Z,7.20
2017-10-13T18:46:12.043Z,7.00
2017-10-13T18:48:39.586Z,5.90
2017-10-13T18:51:07.162Z,6.43
2017-10-13T18:53:35.360Z,7.83
2017-10-13T18:56:02.908Z,5.80
2017-10-13T18:58:30.419Z,7.37
2017-10-13T19:00:58.042Z,7.70
2017-10-13T19:03:25.628Z,7.47
2017-10-13T19:05:53.439Z,6.70
2017-10-13T19:08:20.956Z,7.23
2017-10-13T19:10:49.128Z,8.43
2017-10-13T19:13:30.724Z,7.33
2017-10-13T19:15:58.297Z,6.27
2017-10-13T19:18:25.837Z,7.67
2017-10-13T19:20:53.388Z,5.90
2017-10-13T19:23:20.904Z,8.68
2017-10-13T19:25:48.863Z,6.32
2017-10-13T19:28:16.395Z,6.80
2017-10-13T19:30:45.631Z,6.50
2017-10-13T19:33:14.233Z,8.17
2017-10-13T19:35:41.894Z,7.13
2017-10-13T19:38:09.450Z,9.13
2017-10-13T19:40:37.412Z,7.28
2017-10-13T19:43:04.914Z,8.75
2017-10-13T19:45:32.539Z,8.55
2017-10-13T19:48:00.047Z,7.47
2017-10-13T19:50:29.335Z,7.10
2017-10-13T19:52:57.075Z,8.43
2017-10-13T19:55:24.584Z,7.77
2017-10-13T19:57:54.717Z,8.73
2017-10-13T20:00:22.312Z,7.60
2017-10-13T20:02:49.811Z,8.68
2017-10-13T20:05:19.051Z,8.48
2017-10-13T20:07:46.650Z,7.60
2017-10-13T20:10:14.147Z,7.80
2017-10-13T20:12:42.613Z,7.47
2017-10-13T20:15:10.980Z,8.90
2017-10-13T20:17:39.259Z,8.43
2017-10-13T20:20:08.475Z,7.70
2017-10-13T20:22:36.056Z,7.50
2017-10-13T20:25:03.652Z,7.78
2017-10-13T20:27:32.097Z,9.12
2017-10-13T20:29:59.617Z,8.27
2017-10-13T20:32:29.243Z,8.70
2017-10-13T20:34:58.599Z,6.65
2017-10-13T20:37:28.921Z,6.93
2017-10-13T20:40:03.409Z,7.22
2017-10-13T20:42:31.084Z,7.60
2017-10-13T20:45:05.704Z,8.18
2017-10-13T20:47:34.087Z,7.15
2017-10-13T20:50:01.791Z,10.07
2017-10-13T20:52:29.498Z,7.70
2017-10-13T20:54:57.039Z,8.68
2017-10-13T20:57:25.352Z,6.77
2017-10-13T20:59:53.198Z,7.28
2017-10-13T21:02:20.753Z,7.30
2017-10-13T21:04:48.296Z,7.87
2017-10-13T21:07:25.817Z,7.47
2017-10-13T21:09:57.543Z,7.85
2017-10-13T21:12:26.963Z,7.69
2017-10-13T21:15:03.307Z,8.86
2017-10-13T21:17:34.557Z,7.78
2017-10-13T21:20:04.657Z,8.50
2017-10-13T21:22:43.023Z,9.40
2017-10-13T21:25:18.002Z,9.82
2017-10-13T21:30:45.168Z,8.38
2017-10-13T21:33:17.877Z,8.00
2017-10-13T21:35:56.215Z,7.90
2017-10-13T21:38:31.647Z,10.07
2017-10-13T22:23:04.304Z,6.87
2017-10-13T22:25:32.117Z,9.03
2017-10-13T22:27:59.848Z,7.55
2017-10-13T22:30:27.671Z,6.90
2017-10-13T22:32:58.976Z,7.77
2017-10-13T22:35:28.996Z,7.24
2017-10-13T22:37:56.539Z,7.12
2017-10-13T22:40:24.707Z,7.80
2017-10-13T22:42:52.211Z,8.63
2017-10-13T22:45:19.900Z,8.40
2017-10-13T22:47:47.407Z,7.45
2017-10-13T22:50:15.443Z,7.70
2017-10-13T22:52:42.975Z,7.10
2017-10-13T22:55:11.296Z,5.97
2017-10-13T22:57:38.839Z,9.07
2017-10-13T23:00:06.380Z,7.23
2017-10-13T23:02:35.579Z,7.62
2017-10-13T23:05:03.981Z,7.67
2017-10-13T23:07:31.491Z,7.35
2017-10-13T23:09:59.751Z,7.82
2017-10-13T23:12:27.296Z,8.47
2017-10-13T23:14:54.816Z,10.37
2017-10-13T23:17:25.147Z,8.73
2017-10-13T23:19:56.614Z,8.67
2017-10-13T23:22:24.760Z,8.60
2017-10-13T23:24:53.085Z,8.30
2017-10-13T23:27:20.603Z,8.50
2017-10-13T23:29:49.832Z,8.60
2017-10-13T23:32:21.524Z,9.07
2017-10-13T23:34:53.048Z,8.85
2017-10-13T23:37:20.584Z,8.60
2017-10-13T23:39:48.093Z,8.90
2017-10-13T23:42:15.643Z,9.20
2017-10-13T23:44:43.157Z,7.70
2017-10-13T23:47:10.686Z,7.65
2017-10-13T23:49:39.880Z,7.47
2017-10-13T23:52:07.682Z,8.07
2017-10-13T23:54:35.194Z,8.88
2017-10-13T23:57:02.695Z,6.93
2017-10-13T23:59:30.258Z,6.97
